sensor_id;sensor_type;location;lat;lon;timestamp;pressure;altitude;pressure_sealevel;temperature;humidity
22605;BME280;11469;49.024;8.246;2022-07-22T00:01:01;100742.19;;;20.51;78.53
22605;BME280;11469;49.024;8.246;2022-07-22T00:03:26;100753.63;;;20.48;78.89
22605;BME280;11469;49.024;8.246;2022-07-22T00:05:51;100750.53;;;20.28;79.63
22605;BME280;11469;49.024;8.246;2022-07-22T00:08:17;100748.19;;;20.16;79.42
22605;BME280;11469;49.024;8.246;2022-07-22T00:10:42;100753.94;;;20.09;79.93
22605;BME280;11469;49.024;8.246;2022-07-22T00:13:08;100762.94;;;20.00;80.17
22605;BME280;11469;49.024;8.246;2022-07-22T00:15:33;100758.97;;;19.87;81.04
22605;BME280;11469;49.024;8.246;2022-07-22T00:17:59;100760.25;;;19.79;81.58
22605;BME280;11469;49.024;8.246;2022-07-22T00:20:24;100756.63;;;19.75;82.18
22605;BME280;11469;49.024;8.246;2022-07-22T00:22:49;100758.25;;;19.72;82.53
22605;BME280;11469;49.024;8.246;2022-07-22T00:25:15;100750.78;;;19.93;81.91
22605;BME280;11469;49.024;8.246;2022-07-22T00:27:40;100751.28;;;19.84;82.54
22605;BME280;11469;49.024;8.246;2022-07-22T00:30:06;100752.03;;;19.88;82.62
22605;BME280;11469;49.024;8.246;2022-07-22T00:32:32;100756.59;;;19.78;82.91
22605;BME280;11469;49.024;8.246;2022-07-22T00:34:57;100748.88;;;19.82;83.22
22605;BME280;11469;49.024;8.246;2022-07-22T00:37:22;100749.59;;;19.90;82.88
22605;BME280;11469;49.024;8.246;2022-07-22T00:39:48;100749.31;;;19.74;83.45
22605;BME280;11469;49.024;8.246;2022-07-22T00:42:14;100745.22;;;19.78;83.71
22605;BME280;11469;49.024;8.246;2022-07-22T00:44:40;100747.25;;;19.78;83.77
22605;BME280;11469;49.024;8.246;2022-07-22T00:47:06;100748.06;;;19.78;83.90
22605;BME280;11469;49.024;8.246;2022-07-22T00:49:31;100750.47;;;19.83;83.71
22605;BME280;11469;49.024;8.246;2022-07-22T00:51:56;100752.19;;;19.67;84.25
22605;BME280;11469;49.024;8.246;2022-07-22T00:54:22;100750.19;;;19.64;84.47
22605;BME280;11469;49.024;8.246;2022-07-22T00:56:47;100747.78;;;19.59;84.72
22605;BME280;11469;49.024;8.246;2022-07-22T00:59:13;100740.09;;;19.55;84.69
22605;BME280;11469;49.024;8.246;2022-07-22T01:01:39;100749.00;;;19.61;84.16
22605;BME280;11469;49.024;8.246;2022-07-22T01:04:04;100748.09;;;19.75;83.72
22605;BME280;11469;49.024;8.246;2022-07-22T01:06:30;100741.97;;;19.80;83.30
22605;BME280;11469;49.024;8.246;2022-07-22T01:08:56;100735.16;;;19.67;83.50
22605;BME280;11469;49.024;8.246;2022-07-22T01:11:22;100738.03;;;19.60;84.42
22605;BME280;11469;49.024;8.246;2022-07-22T01:13:49;100732.78;;;19.54;84.43
22605;BME280;11469;49.024;8.246;2022-07-22T01:16:16;100736.81;;;19.61;84.18
22605;BME280;11469;49.024;8.246;2022-07-22T01:18:43;100740.91;;;19.45;84.97
22605;BME280;11469;49.024;8.246;2022-07-22T01:21:09;100741.69;;;19.57;84.08
22605;BME280;11469;49.024;8.246;2022-07-22T01:23:35;100733.59;;;19.55;84.40
22605;BME280;11469;49.024;8.246;2022-07-22T01:26:02;100734.03;;;19.39;84.69
22605;BME280;11469;49.024;8.246;2022-07-22T01:28:28;100736.06;;;19.42;85.19
22605;BME280;11469;49.024;8.246;2022-07-22T01:30:53;100739.69;;;19.53;84.30
22605;BME280;11469;49.024;8.246;2022-07-22T01:33:20;100741.75;;;19.39;84.75
22605;BME280;11469;49.024;8.246;2022-07-22T01:35:46;100741.81;;;19.32;85.43
22605;BME280;11469;49.024;8.246;2022-07-22T01:38:13;100742.22;;;19.34;85.12
22605;BME280;11469;49.024;8.246;2022-07-22T01:40:39;100742.25;;;19.23;85.69
22605;BME280;11469;49.024;8.246;2022-07-22T01:43:05;100746.75;;;19.17;86.22
22605;BME280;11469;49.024;8.246;2022-07-22T01:45:31;100739.84;;;19.18;86.35
22605;BME280;11469;49.024;8.246;2022-07-22T01:47:56;100736.63;;;19.09;86.30
22605;BME280;11469;49.024;8.246;2022-07-22T01:50:23;100739.09;;;19.00;86.82
22605;BME280;11469;49.024;8.246;2022-07-22T01:52:49;100741.19;;;18.88;87.57
22605;BME280;11469;49.024;8.246;2022-07-22T01:55:14;100740.38;;;18.84;87.55
22605;BME280;11469;49.024;8.246;2022-07-22T01:57:39;100735.13;;;18.79;88.05
22605;BME280;11469;49.024;8.246;2022-07-22T02:00:07;100740.81;;;18.76;88.43
22605;BME280;11469;49.024;8.246;2022-07-22T02:02:34;100738.78;;;18.73;89.01
22605;BME280;11469;49.024;8.246;2022-07-22T02:04:59;100736.38;;;18.68;89.80
22605;BME280;11469;49.024;8.246;2022-07-22T02:07:25;100733.13;;;18.62;90.46
22605;BME280;11469;49.024;8.246;2022-07-22T02:09:52;100735.97;;;18.69;90.36
22605;BME280;11469;49.024;8.246;2022-07-22T02:12:17;100726.63;;;18.69;90.07
22605;BME280;11469;49.024;8.246;2022-07-22T02:14:43;100731.91;;;18.52;90.77
22605;BME280;11469;49.024;8.246;2022-07-22T02:17:09;100737.19;;;18.47;91.32
22605;BME280;11469;49.024;8.246;2022-07-22T02:19:34;100731.91;;;18.49;91.59
22605;BME280;11469;49.024;8.246;2022-07-22T02:22:00;100740.81;;;18.47;91.48
22605;BME280;11469;49.024;8.246;2022-07-22T02:24:25;100734.75;;;18.49;91.45
22605;BME280;11469;49.024;8.246;2022-07-22T02:26:51;100741.22;;;18.46;91.63
22605;BME280;11469;49.024;8.246;2022-07-22T02:29:16;100735.56;;;18.49;91.23
22605;BME280;11469;49.024;8.246;2022-07-22T02:31:41;100738.00;;;18.44;91.37
22605;BME280;11469;49.024;8.246;2022-07-22T02:34:07;100736.00;;;18.41;91.46
22605;BME280;11469;49.024;8.246;2022-07-22T02:36:33;100734.78;;;18.38;91.87
22605;BME280;11469;49.024;8.246;2022-07-22T02:38:58;100736.00;;;18.30;92.07
22605;BME280;11469;49.024;8.246;2022-07-22T02:41:24;100736.81;;;18.34;92.18
22605;BME280;11469;49.024;8.246;2022-07-22T02:43:49;100736.81;;;18.41;91.99
22605;BME280;11469;49.024;8.246;2022-07-22T02:46:19;100733.56;;;18.36;92.19
22605;BME280;11469;49.024;8.246;2022-07-22T02:48:44;100739.66;;;18.34;92.38
22605;BME280;11469;49.024;8.246;2022-07-22T02:51:10;100732.75;;;18.35;92.54
22605;BME280;11469;49.024;8.246;2022-07-22T02:53:35;100736.41;;;18.32;92.60
22605;BME280;11469;49.024;8.246;2022-07-22T02:56:01;100746.50;;;18.47;91.33
22605;BME280;11469;49.024;8.246;2022-07-22T02:58:26;100738.81;;;18.44;91.80
22605;BME280;11469;49.024;8.246;2022-07-22T03:00:51;100744.47;;;18.44;91.88
22605;BME280;11469;49.024;8.246;2022-07-22T03:03:17;100735.16;;;18.44;91.72
22605;BME280;11469;49.024;8.246;2022-07-22T03:05:42;100734.78;;;18.31;92.44
22605;BME280;11469;49.024;8.246;2022-07-22T03:08:08;100731.13;;;18.23;92.54
22605;BME280;11469;49.024;8.246;2022-07-22T03:10:33;100731.53;;;18.18;92.86
22605;BME280;11469;49.024;8.246;2022-07-22T03:12:59;100733.16;;;18.12;93.26
22605;BME280;11469;49.024;8.246;2022-07-22T03:15:24;100726.28;;;18.17;92.51
22605;BME280;11469;49.024;8.246;2022-07-22T03:17:49;100732.34;;;18.12;92.76
22605;BME280;11469;49.024;8.246;2022-07-22T03:20:15;100736.00;;;18.05;92.73
22605;BME280;11469;49.024;8.246;2022-07-22T03:22:41;100735.59;;;18.03;93.03
22605;BME280;11469;49.024;8.246;2022-07-22T03:25:06;100733.97;;;18.09;92.66
22605;BME280;11469;49.024;8.246;2022-07-22T03:27:32;100734.38;;;18.18;91.86
22605;BME280;11469;49.024;8.246;2022-07-22T03:29:57;100731.53;;;18.22;91.79
22605;BME280;11469;49.024;8.246;2022-07-22T03:32:22;100735.19;;;18.26;91.52
22605;BME280;11469;49.024;8.246;2022-07-22T03:34:48;100735.59;;;18.21;91.62
22605;BME280;11469;49.024;8.246;2022-07-22T03:37:13;100728.28;;;18.38;90.95
22605;BME280;11469;49.024;8.246;2022-07-22T03:39:38;100736.41;;;18.39;90.99
22605;BME280;11469;49.024;8.246;2022-07-22T03:42:04;100731.13;;;18.34;90.87
22605;BME280;11469;49.024;8.246;2022-07-22T03:44:29;100732.75;;;18.28;91.34
22605;BME280;11469;49.024;8.246;2022-07-22T03:46:55;100735.59;;;18.21;91.66
22605;BME280;11469;49.024;8.246;2022-07-22T03:49:20;100727.50;;;18.27;91.51
22605;BME280;11469;49.024;8.246;2022-07-22T03:51:46;100725.06;;;18.36;91.27
22605;BME280;11469;49.024;8.246;2022-07-22T03:54:12;100733.56;;;18.39;91.03
22605;BME280;11469;49.024;8.246;2022-07-22T03:56:37;100735.59;;;18.21;91.65
22605;BME280;11469;49.024;8.246;2022-07-22T03:59:03;100725.88;;;18.33;91.39
22605;BME280;11469;49.024;8.246;2022-07-22T04:01:28;100729.09;;;18.28;90.92
22605;BME280;11469;49.024;8.246;2022-07-22T04:03:54;100725.06;;;18.14;91.75
22605;BME280;11469;49.024;8.246;2022-07-22T04:06:19;100733.16;;;18.19;91.57
22605;BME280;11469;49.024;8.246;2022-07-22T04:08:44;100727.88;;;18.32;90.90
22605;BME280;11469;49.024;8.246;2022-07-22T04:11:10;100728.31;;;18.23;91.32
22605;BME280;11469;49.024;8.246;2022-07-22T04:13:35;100736.00;;;18.30;91.17
22605;BME280;11469;49.024;8.246;2022-07-22T04:16:01;100729.50;;;18.30;90.96
22605;BME280;11469;49.024;8.246;2022-07-22T04:18:30;100724.25;;;18.35;90.71
22605;BME280;11469;49.024;8.246;2022-07-22T04:20:55;100728.69;;;18.26;91.11
22605;BME280;11469;49.024;8.246;2022-07-22T04:23:21;100723.84;;;18.30;91.06
22605;BME280;11469;49.024;8.246;2022-07-22T04:25:46;100727.47;;;18.37;90.21
22605;BME280;11469;49.024;8.246;2022-07-22T04:28:11;100729.88;;;18.46;90.04
22605;BME280;11469;49.024;8.246;2022-07-22T04:30:37;100731.50;;;18.47;89.41
22605;BME280;11469;49.024;8.246;2022-07-22T04:33:02;100734.72;;;18.56;88.88
22605;BME280;11469;49.024;8.246;2022-07-22T04:35:28;100727.44;;;18.58;88.32
22605;BME280;11469;49.024;8.246;2022-07-22T04:37:53;100736.38;;;18.64;88.14
22605;BME280;11469;49.024;8.246;2022-07-22T04:40:18;100723.78;;;18.79;87.47
22605;BME280;11469;49.024;8.246;2022-07-22T04:42:44;100724.50;;;18.94;86.93
22605;BME280;11469;49.024;8.246;2022-07-22T04:45:10;100728.13;;;19.05;86.27
22605;BME280;11469;49.024;8.246;2022-07-22T04:47:36;100725.72;;;19.00;86.31
22605;BME280;11469;49.024;8.246;2022-07-22T04:50:02;100724.09;;;18.99;86.57
22605;BME280;11469;49.024;8.246;2022-07-22T04:52:28;100717.56;;;19.06;86.10
22605;BME280;11469;49.024;8.246;2022-07-22T04:54:53;100718.78;;;19.08;86.17
22605;BME280;11469;49.024;8.246;2022-07-22T04:57:18;100724.03;;;19.13;85.28
22605;BME280;11469;49.024;8.246;2022-07-22T04:59:44;100722.09;;;18.93;86.18
22605;BME280;11469;49.024;8.246;2022-07-22T05:02:09;100721.66;;;18.94;86.20
22605;BME280;11469;49.024;8.246;2022-07-22T05:04:35;100716.78;;;18.98;86.07
22605;BME280;11469;49.024;8.246;2022-07-22T05:07:00;100716.41;;;18.93;86.10
22605;BME280;11469;49.024;8.246;2022-07-22T05:09:28;100718.41;;;18.96;86.38
22605;BME280;11469;49.024;8.246;2022-07-22T05:11:53;100718.44;;;18.92;86.66
22605;BME280;11469;49.024;8.246;2022-07-22T05:14:18;100718.47;;;18.88;86.55
22605;BME280;11469;49.024;8.246;2022-07-22T05:16:45;100718.88;;;18.87;86.37
22605;BME280;11469;49.024;8.246;2022-07-22T05:19:10;100717.63;;;18.92;86.41
22605;BME280;11469;49.024;8.246;2022-07-22T05:21:36;100729.38;;;18.94;86.30
22605;BME280;11469;49.024;8.246;2022-07-22T05:24:01;100723.69;;;19.01;85.53
22605;BME280;11469;49.024;8.246;2022-07-22T05:26:27;100725.28;;;19.05;85.87
22605;BME280;11469;49.024;8.246;2022-07-22T05:28:54;100725.28;;;19.09;85.40
22605;BME280;11469;49.024;8.246;2022-07-22T05:31:19;100725.63;;;19.18;84.92
22605;BME280;11469;49.024;8.246;2022-07-22T05:33:45;100729.59;;;19.38;83.69
22605;BME280;11469;49.024;8.246;2022-07-22T05:36:10;100729.56;;;19.42;83.85
22605;BME280;11469;49.024;8.246;2022-07-22T05:38:36;100733.16;;;19.57;83.22
22605;BME280;11469;49.024;8.246;2022-07-22T05:41:01;100726.16;;;19.75;82.80
22605;BME280;11469;49.024;8.246;2022-07-22T05:43:27;100729.03;;;19.72;82.35
22605;BME280;11469;49.024;8.246;2022-07-22T05:45:53;100721.16;;;19.90;81.35
22605;BME280;11469;49.024;8.246;2022-07-22T05:48:18;100718.00;;;19.81;82.22
22605;BME280;11469;49.024;8.246;2022-07-22T05:50:44;100717.38;;;20.04;81.33
22605;BME280;11469;49.024;8.246;2022-07-22T05:53:09;100720.91;;;20.22;80.59
22605;BME280;11469;49.024;8.246;2022-07-22T05:55:34;100729.53;;;20.56;79.49
22605;BME280;11469;49.024;8.246;2022-07-22T05:58:00;100721.91;;;20.46;78.70
22605;BME280;11469;49.024;8.246;2022-07-22T06:00:26;100723.38;;;20.16;79.10
22605;BME280;11469;49.024;8.246;2022-07-22T06:02:51;100729.47;;;20.18;79.43
22605;BME280;11469;49.024;8.246;2022-07-22T06:05:16;100714.91;;;20.09;80.34
22605;BME280;11469;49.024;8.246;2022-07-22T06:07:42;100709.38;;;20.40;78.62
22605;BME280;11469;49.024;8.246;2022-07-22T06:10:07;100721.91;;;20.46;78.24
22605;BME280;11469;49.024;8.246;2022-07-22T06:12:33;100720.16;;;20.59;78.36
22605;BME280;11469;49.024;8.246;2022-07-22T06:14:58;100728.78;;;20.52;78.14
22605;BME280;11469;49.024;8.246;2022-07-22T06:17:24;100720.66;;;20.50;76.33
22605;BME280;11469;49.024;8.246;2022-07-22T06:19:49;100715.03;;;20.43;77.79
22605;BME280;11469;49.024;8.246;2022-07-22T06:22:14;100717.31;;;20.59;77.10
22605;BME280;11469;49.024;8.246;2022-07-22T06:24:42;100717.66;;;20.99;75.23
22605;BME280;11469;49.024;8.246;2022-07-22T06:27:08;100711.34;;;20.80;75.22
22605;BME280;11469;49.024;8.246;2022-07-22T06:29:33;100714.75;;;20.72;75.19
22605;BME280;11469;49.024;8.246;2022-07-22T06:31:58;100716.00;;;21.01;74.38
22605;BME280;11469;49.024;8.246;2022-07-22T06:34:24;100708.78;;;20.93;74.64
22605;BME280;11469;49.024;8.246;2022-07-22T06:36:49;100717.84;;;21.18;73.40
22605;BME280;11469;49.024;8.246;2022-07-22T06:39:14;100717.69;;;21.29;72.70
22605;BME280;11469;49.024;8.246;2022-07-22T06:41:40;100718.88;;;21.32;73.12
22605;BME280;11469;49.024;8.246;2022-07-22T06:44:05;100705.91;;;21.27;72.35
22605;BME280;11469;49.024;8.246;2022-07-22T06:46:31;100714.94;;;21.26;72.72
22605;BME280;11469;49.024;8.246;2022-07-22T06:48:56;100705.72;;;21.41;70.35
22605;BME280;11469;49.024;8.246;2022-07-22T06:51:21;100687.84;;;20.76;72.82
22605;BME280;11469;49.024;8.246;2022-07-22T06:53:47;100702.09;;;21.07;72.65
22605;BME280;11469;49.024;8.246;2022-07-22T06:56:12;100693.47;;;21.44;72.35
22605;BME280;11469;49.024;8.246;2022-07-22T06:58:38;100697.84;;;21.52;70.29
22605;BME280;11469;49.024;8.246;2022-07-22T07:01:03;100695.84;;;21.49;70.62
22605;BME280;11469;49.024;8.246;2022-07-22T07:03:28;100698.78;;;21.42;71.40
22605;BME280;11469;49.024;8.246;2022-07-22T07:05:54;100684.25;;;21.87;71.08
22605;BME280;11469;49.024;8.246;2022-07-22T07:08:19;100677.66;;;21.67;69.76
22605;BME280;11469;49.024;8.246;2022-07-22T07:10:45;100695.78;;;21.80;70.05
22605;BME280;11469;49.024;8.246;2022-07-22T07:13:10;100686.13;;;21.97;68.48
22605;BME280;11469;49.024;8.246;2022-07-22T07:15:36;100683.09;;;21.58;69.85
22605;BME280;11469;49.024;8.246;2022-07-22T07:18:01;100682.16;;;21.37;70.19
22605;BME280;11469;49.024;8.246;2022-07-22T07:20:27;100670.94;;;21.53;70.81
22605;BME280;11469;49.024;8.246;2022-07-22T07:22:52;100681.47;;;21.57;70.28
22605;BME280;11469;49.024;8.246;2022-07-22T07:25:18;100675.94;;;21.96;69.27
22605;BME280;11469;49.024;8.246;2022-07-22T07:27:44;100664.06;;;22.01;68.41
22605;BME280;11469;49.024;8.246;2022-07-22T07:30:10;100677.41;;;21.81;69.01
22605;BME280;11469;49.024;8.246;2022-07-22T07:32:36;100661.97;;;21.78;69.28
22605;BME280;11469;49.024;8.246;2022-07-22T07:35:02;100667.63;;;21.82;69.45
22605;BME280;11469;49.024;8.246;2022-07-22T07:37:28;100662.22;;;21.88;69.29
22605;BME280;11469;49.024;8.246;2022-07-22T07:39:53;100663.16;;;22.08;68.36
22605;BME280;11469;49.024;8.246;2022-07-22T07:42:19;100657.09;;;22.26;68.02
22605;BME280;11469;49.024;8.246;2022-07-22T07:44:44;100670.94;;;22.27;67.13
22605;BME280;11469;49.024;8.246;2022-07-22T07:47:09;100663.19;;;22.28;68.13
22605;BME280;11469;49.024;8.246;2022-07-22T07:49:35;100665.38;;;22.63;66.75
22605;BME280;11469;49.024;8.246;2022-07-22T07:52:00;100662.88;;;22.65;67.03
22605;BME280;11469;49.024;8.246;2022-07-22T07:54:26;100661.66;;;22.66;67.28
22605;BME280;11469;49.024;8.246;2022-07-22T07:56:51;100664.28;;;22.57;67.63
22605;BME280;11469;49.024;8.246;2022-07-22T07:59:17;100662.25;;;22.34;68.30
22605;BME280;11469;49.024;8.246;2022-07-22T08:01:43;100659.44;;;22.54;67.33
22605;BME280;11469;49.024;8.246;2022-07-22T08:04:09;100654.38;;;22.62;67.13
22605;BME280;11469;49.024;8.246;2022-07-22T08:06:34;100642.09;;;22.84;66.82
22605;BME280;11469;49.024;8.246;2022-07-22T08:08:59;100653.47;;;22.88;65.67
22605;BME280;11469;49.024;8.246;2022-07-22T08:11:25;100656.59;;;22.94;65.99
22605;BME280;11469;49.024;8.246;2022-07-22T08:13:50;100645.34;;;22.43;66.96
22605;BME280;11469;49.024;8.246;2022-07-22T08:16:16;100643.97;;;22.71;66.98
22605;BME280;11469;49.024;8.246;2022-07-22T08:18:41;100648.09;;;22.90;66.13
22605;BME280;11469;49.024;8.246;2022-07-22T08:21:07;100643.56;;;23.12;65.42
22605;BME280;11469;49.024;8.246;2022-07-22T08:23:33;100643.56;;;23.29;65.18
22605;BME280;11469;49.024;8.246;2022-07-22T08:25:59;100643.56;;;23.29;64.55
22605;BME280;11469;49.024;8.246;2022-07-22T08:28:24;100649.31;;;22.69;66.74
22605;BME280;11469;49.024;8.246;2022-07-22T08:30:50;100649.94;;;23.00;65.81
22605;BME280;11469;49.024;8.246;2022-07-22T08:33:15;100642.66;;;22.76;66.13
22605;BME280;11469;49.024;8.246;2022-07-22T08:35:40;100634.47;;;22.98;65.61
22605;BME280;11469;49.024;8.246;2022-07-22T08:38:06;100645.03;;;23.37;65.11
22605;BME280;11469;49.024;8.246;2022-07-22T08:40:31;100630.88;;;23.30;64.75
22605;BME280;11469;49.024;8.246;2022-07-22T08:42:57;100630.59;;;23.24;65.63
22605;BME280;11469;49.024;8.246;2022-07-22T08:45:25;100622.44;;;23.42;64.98
22605;BME280;11469;49.024;8.246;2022-07-22T08:47:54;100625.59;;;23.12;64.78
22605;BME280;11469;49.024;8.246;2022-07-22T08:50:19;100620.56;;;23.16;65.01
22605;BME280;11469;49.024;8.246;2022-07-22T08:52:45;100620.63;;;23.32;64.98
22605;BME280;11469;49.024;8.246;2022-07-22T08:55:10;100614.22;;;23.44;65.26
22605;BME280;11469;49.024;8.246;2022-07-22T08:57:36;100619.25;;;23.57;64.18
22605;BME280;11469;49.024;8.246;2022-07-22T09:00:09;100615.66;;;23.85;63.75
22605;BME280;11469;49.024;8.246;2022-07-22T09:02:37;100611.13;;;23.88;63.78
22605;BME280;11469;49.024;8.246;2022-07-22T09:05:05;100617.28;;;23.86;63.40
22605;BME280;11469;49.024;8.246;2022-07-22T09:07:36;100609.69;;;23.79;63.77
22605;BME280;11469;49.024;8.246;2022-07-22T09:10:04;100598.94;;;24.00;63.40
22605;BME280;11469;49.024;8.246;2022-07-22T09:12:30;100603.31;;;24.04;62.45
22605;BME280;11469;49.024;8.246;2022-07-22T09:14:59;100598.78;;;24.20;62.54
22605;BME280;11469;49.024;8.246;2022-07-22T09:17:28;100600.94;;;24.15;62.38
22605;BME280;11469;49.024;8.246;2022-07-22T09:19:56;100597.63;;;24.33;62.08
22605;BME280;11469;49.024;8.246;2022-07-22T09:22:40;100602.16;;;24.47;62.11
22605;BME280;11469;49.024;8.246;2022-07-22T09:30:55;100587.75;;;24.63;61.20
22605;BME280;11469;49.024;8.246;2022-07-22T09:33:21;100575.97;;;24.74;60.52
22605;BME280;11469;49.024;8.246;2022-07-22T09:35:48;100579.91;;;24.80;61.47
22605;BME280;11469;49.024;8.246;2022-07-22T09:38:15;100582.72;;;24.96;60.17
22605;BME280;11469;49.024;8.246;2022-07-22T09:40:43;100571.59;;;25.24;59.61
22605;BME280;11469;49.024;8.246;2022-07-22T09:43:14;100570.44;;;25.21;59.88
22605;BME280;11469;49.024;8.246;2022-07-22T09:45:55;100571.13;;;25.12;59.93
22605;BME280;11469;49.024;8.246;2022-07-22T09:48:23;100576.41;;;25.14;59.59
22605;BME280;11469;49.024;8.246;2022-07-22T09:50:50;100575.16;;;25.02;59.93
22605;BME280;11469;49.024;8.246;2022-07-22T09:53:18;100563.69;;;25.15;60.04
22605;BME280;11469;49.024;8.246;2022-07-22T09:55:44;100556.56;;;25.20;59.67
22605;BME280;11469;49.024;8.246;2022-07-22T09:58:10;100558.41;;;25.39;59.64
22605;BME280;11469;49.024;8.246;2022-07-22T10:00:38;100556.19;;;25.56;59.40
22605;BME280;11469;49.024;8.246;2022-07-22T10:03:06;100553.09;;;25.63;58.91
22605;BME280;11469;49.024;8.246;2022-07-22T10:05:34;100545.59;;;25.91;58.34
22605;BME280;11469;49.024;8.246;2022-07-22T10:08:02;100543.47;;;26.04;57.26
22605;BME280;11469;49.024;8.246;2022-07-22T10:10:30;100540.13;;;26.05;58.00
22605;BME280;11469;49.024;8.246;2022-07-22T10:12:57;100537.59;;;26.07;57.78
22605;BME280;11469;49.024;8.246;2022-07-22T10:15:24;100547.47;;;25.72;58.61
22605;BME280;11469;49.024;8.246;2022-07-22T10:17:52;100537.09;;;25.87;58.53
22605;BME280;11469;49.024;8.246;2022-07-22T10:20:25;100531.91;;;25.95;58.49
22605;BME280;11469;49.024;8.246;2022-07-22T10:22:59;100540.53;;;26.17;57.04
22605;BME280;11469;49.024;8.246;2022-07-22T10:25:30;100523.72;;;26.28;56.81
22605;BME280;11469;49.024;8.246;2022-07-22T10:28:04;100526.09;;;26.42;56.37
22605;BME280;11469;49.024;8.246;2022-07-22T10:30:31;100532.19;;;26.44;56.95
22605;BME280;11469;49.024;8.246;2022-07-22T10:33:12;100522.75;;;26.43;56.21
22605;BME280;11469;49.024;8.246;2022-07-22T10:35:58;100520.47;;;26.60;56.52
22605;BME280;11469;49.024;8.246;2022-07-22T10:38:25;100514.72;;;26.60;55.72
22605;BME280;11469;49.024;8.246;2022-07-22T10:40:56;100516.16;;;26.34;56.40
22605;BME280;11469;49.024;8.246;2022-07-22T10:43:23;100517.19;;;26.49;56.30
22605;BME280;11469;49.024;8.246;2022-07-22T10:51:10;100503.78;;;26.46;55.92
22605;BME280;11469;49.024;8.246;2022-07-22T10:53:42;100500.13;;;26.55;55.46
22605;BME280;11469;49.024;8.246;2022-07-22T10:58:41;100487.56;;;27.23;54.73
22605;BME280;11469;49.024;8.246;2022-07-22T11:01:12;100480.53;;;27.24;54.36
22605;BME280;11469;49.024;8.246;2022-07-22T11:03:39;100479.72;;;27.24;53.84
22605;BME280;11469;49.024;8.246;2022-07-22T11:08:46;100470.00;;;27.30;53.87
22605;BME280;11469;49.024;8.246;2022-07-22T11:11:11;100471.44;;;27.44;52.74
22605;BME280;11469;49.024;8.246;2022-07-22T11:13:39;100462.03;;;27.34;53.44
22605;BME280;11469;49.024;8.246;2022-07-22T11:16:20;100459.53;;;27.73;53.11
22605;BME280;11469;49.024;8.246;2022-07-22T11:18:50;100457.31;;;27.77;52.80
22605;BME280;11469;49.024;8.246;2022-07-22T11:21:18;100460.81;;;27.90;52.84
22605;BME280;11469;49.024;8.246;2022-07-22T11:23:44;100458.66;;;27.45;52.98
22605;BME280;11469;49.024;8.246;2022-07-22T11:26:13;100458.34;;;27.52;53.42
22605;BME280;11469;49.024;8.246;2022-07-22T11:28:43;100453.94;;;27.88;52.69
22605;BME280;11469;49.024;8.246;2022-07-22T11:31:10;100450.25;;;28.05;51.81
22605;BME280;11469;49.024;8.246;2022-07-22T11:33:38;100447.84;;;28.13;50.67
22605;BME280;11469;49.024;8.246;2022-07-22T11:36:05;100449.63;;;27.74;51.48
22605;BME280;11469;49.024;8.246;2022-07-22T11:38:48;100441.13;;;27.98;51.19
22605;BME280;11469;49.024;8.246;2022-07-22T11:41:18;100432.97;;;28.24;51.63
22605;BME280;11469;49.024;8.246;2022-07-22T11:43:46;100434.25;;;28.32;50.38
22605;BME280;11469;49.024;8.246;2022-07-22T11:46:13;100435.84;;;28.33;51.16
22605;BME280;11469;49.024;8.246;2022-07-22T11:48:40;100428.75;;;28.43;50.41
22605;BME280;11469;49.024;8.246;2022-07-22T11:51:07;100431.56;;;28.61;49.91
22605;BME280;11469;49.024;8.246;2022-07-22T11:53:36;100433.63;;;28.70;50.26
22605;BME280;11469;49.024;8.246;2022-07-22T11:56:03;100435.13;;;28.47;50.51
22605;BME280;11469;49.024;8.246;2022-07-22T11:58:47;100430.16;;;28.48;49.72
22605;BME280;11469;49.024;8.246;2022-07-22T12:01:16;100415.66;;;28.75;49.40
22605;BME280;11469;49.024;8.246;2022-07-22T12:03:49;100407.78;;;28.85;48.70
22605;BME280;11469;49.024;8.246;2022-07-22T12:06:16;100407.88;;;28.99;48.67
22605;BME280;11469;49.024;8.246;2022-07-22T12:08:57;100415.06;;;29.04;47.68
22605;BME280;11469;49.024;8.246;2022-07-22T12:11:27;100403.28;;;29.17;47.45
22605;BME280;11469;49.024;8.246;2022-07-22T12:13:53;100399.59;;;29.40;47.38
22605;BME280;11469;49.024;8.246;2022-07-22T12:16:29;100391.28;;;29.33;47.08
22605;BME280;11469;49.024;8.246;2022-07-22T12:21:26;100387.13;;;29.10;46.18
22605;BME280;11469;49.024;8.246;2022-07-22T12:24:14;100388.50;;;29.24;46.80
22605;BME280;11469;49.024;8.246;2022-07-22T12:26:42;100385.25;;;29.55;46.78
22605;BME280;11469;49.024;8.246;2022-07-22T12:29:14;100373.75;;;29.99;46.16
22605;BME280;11469;49.024;8.246;2022-07-22T12:31:48;100371.81;;;30.20;45.00
22605;BME280;11469;49.024;8.246;2022-07-22T12:34:14;100363.53;;;30.13;44.53
22605;BME280;11469;49.024;8.246;2022-07-22T12:36:45;100363.63;;;30.18;43.79
22605;BME280;11469;49.024;8.246;2022-07-22T12:39:14;100353.75;;;29.42;45.74
22605;BME280;11469;49.024;8.246;2022-07-22T12:41:49;100358.06;;;29.61;46.29
22605;BME280;11469;49.024;8.246;2022-07-22T12:44:20;100346.84;;;29.78;45.95
22605;BME280;11469;49.024;8.246;2022-07-22T12:46:49;100347.63;;;29.79;45.54
22605;BME280;11469;49.024;8.246;2022-07-22T12:49:19;100354.03;;;29.97;45.73
22605;BME280;11469;49.024;8.246;2022-07-22T12:54:33;100348.16;;;29.92;44.23
22605;BME280;11469;49.024;8.246;2022-07-22T12:56:59;100336.72;;;30.12;44.28
22605;BME280;11469;49.024;8.246;2022-07-22T12:59:25;100323.13;;;30.33;45.05
22605;BME280;11469;49.024;8.246;2022-07-22T13:01:50;100323.41;;;30.64;43.70
22605;BME280;11469;49.024;8.246;2022-07-22T13:04:15;100327.53;;;30.78;44.11
22605;BME280;11469;49.024;8.246;2022-07-22T13:06:41;100331.16;;;30.73;44.10
22605;BME280;11469;49.024;8.246;2022-07-22T13:09:06;100316.34;;;30.65;43.44